createdAt,value
2023-03-16T05:00:40.405Z,-1.48
2023-03-16T05:01:40.480Z,-1.46
2023-03-16T05:02:40.380Z,-1.54
2023-03-16T05:03:40.341Z,-1.59
2023-03-16T05:04:40.327Z,-1.67
2023-03-16T05:05:40.373Z,-1.73
2023-03-16T05:06:40.290Z,-1.77
2023-03-16T05:07:40.350Z,-1.84
2023-03-16T05:08:40.269Z,-1.87
2023-03-16T05:09:40.275Z,-1.91
2023-03-16T05:10:40.242Z,-1.90
2023-03-16T05:11:40.253Z,-1.92
2023-03-16T05:12:40.245Z,-1.91
2023-03-16T05:13:47.259Z,-1.97
2023-03-16T05:14:40.224Z,-1.95
2023-03-16T05:15:40.274Z,-1.92
2023-03-16T05:16:40.183Z,-1.92
2023-03-16T05:17:40.228Z,-1.94
2023-03-16T05:18:40.151Z,-2.00
2023-03-16T05:19:40.167Z,-2.02
2023-03-16T05:20:40.153Z,-2.03
2023-03-16T05:21:40.127Z,-2.00
2023-03-16T05:22:40.161Z,-1.98
2023-03-16T05:23:40.104Z,-1.95
2023-03-16T05:24:40.061Z,-1.95
2023-03-16T05:25:40.092Z,-1.94
2023-03-16T05:26:40.047Z,-1.91
2023-03-16T05:27:40.104Z,-1.85
2023-03-16T05:28:40.059Z,-1.80
2023-03-16T05:29:40.032Z,-1.74
2023-03-16T05:30:40.006Z,-1.64
2023-03-16T05:31:40.072Z,-1.61
2023-03-16T05:32:40.123Z,-1.62
2023-03-16T05:33:40.004Z,-1.62
2023-03-16T05:34:39.974Z,-1.66
2023-03-16T05:35:40.042Z,-1.72
2023-03-16T05:36:39.923Z,-1.74
2023-03-16T05:37:39.941Z,-1.77
2023-03-16T05:38:40.062Z,-1.77
2023-03-16T05:39:39.912Z,-1.79
2023-03-16T05:40:39.870Z,-1.80
2023-03-16T05:41:40.066Z,-1.82
2023-03-16T05:42:39.875Z,-1.84
2023-03-16T05:43:39.852Z,-1.84
2023-03-16T05:44:39.852Z,-1.84
2023-03-16T05:45:39.827Z,-1.77
2023-03-16T05:46:39.815Z,-1.74
2023-03-16T05:47:39.900Z,-1.74
2023-03-16T05:48:39.800Z,-1.76
2023-03-16T05:49:39.781Z,-1.76
2023-03-16T05:50:39.738Z,-1.76
2023-03-16T05:51:39.762Z,-1.74
2023-03-16T05:52:39.794Z,-1.74
2023-03-16T05:53:39.788Z,-1.72
2023-03-16T05:54:39.728Z,-1.66
2023-03-16T05:55:39.688Z,-1.56
2023-03-16T05:56:39.679Z,-1.49
2023-03-16T05:57:39.745Z,-1.45
2023-03-16T05:58:39.710Z,-1.37
2023-03-16T05:59:39.636Z,-1.33
2023-03-16T06:00:39.645Z,-1.30
2023-03-16T06:01:39.620Z,-1.25
2023-03-16T06:02:39.654Z,-1.22
2023-03-16T06:03:39.668Z,-1.20
2023-03-16T06:04:39.585Z,-1.16
2023-03-16T06:05:39.584Z,-1.13
2023-03-16T06:06:39.581Z,-1.09
2023-03-16T06:07:39.547Z,-1.05
2023-03-16T06:08:39.570Z,-1.02
2023-03-16T06:09:39.515Z,-0.99
2023-03-16T06:10:39.507Z,-0.98
2023-03-16T06:11:39.491Z,-0.95
2023-03-16T06:12:39.495Z,-0.94
2023-03-16T06:13:39.508Z,-0.89
2023-03-16T06:14:39.476Z,-0.85
2023-03-16T06:15:39.451Z,-0.85
2023-03-16T06:16:39.577Z,-0.82
2023-03-16T06:17:39.399Z,-0.79
2023-03-16T06:18:39.487Z,-0.76
2023-03-16T06:19:39.416Z,-0.72
2023-03-16T06:20:39.396Z,-0.72
2023-03-16T06:21:39.383Z,-0.65
2023-03-16T06:22:39.372Z,-0.60
2023-03-16T06:23:39.328Z,-0.54
2023-03-16T06:24:39.455Z,-0.46
2023-03-16T06:25:40.731Z,-0.40
2023-03-16T06:26:39.310Z,-0.31
2023-03-16T06:27:39.289Z,-0.10
2023-03-16T06:28:39.275Z,0.20
2023-03-16T06:29:39.255Z,0.55
2023-03-16T06:30:39.306Z,0.84
2023-03-16T06:31:39.299Z,1.14
2023-03-16T06:32:39.252Z,1.44
2023-03-16T06:33:39.364Z,1.72
2023-03-16T06:34:39.217Z,1.98
2023-03-16T06:35:39.238Z,2.10
2023-03-16T06:36:39.197Z,2.07
2023-03-16T06:37:39.174Z,2.10
2023-03-16T06:38:39.202Z,2.18
2023-03-16T06:39:39.130Z,2.38
2023-03-16T06:40:39.232Z,2.57
2023-03-16T06:41:39.102Z,2.60
2023-03-16T06:42:39.132Z,2.56
2023-03-16T06:43:39.088Z,2.49
2023-03-16T06:44:39.114Z,2.49
2023-03-16T06:45:39.078Z,2.56
2023-03-16T06:46:39.051Z,2.60
2023-03-16T06:47:39.021Z,2.72
2023-03-16T06:48:39.028Z,2.96
2023-03-16T06:49:39.039Z,3.17
2023-03-16T06:50:39.073Z,3.20
2023-03-16T06:51:38.982Z,3.39
2023-03-16T06:52:38.990Z,3.42
2023-03-16T06:53:38.938Z,3.32
2023-03-16T06:54:38.976Z,3.36
2023-03-16T06:55:38.920Z,3.32
2023-03-16T06:56:39.023Z,3.28
2023-03-16T06:57:38.892Z,3.33
2023-03-16T06:58:38.896Z,3.26
2023-03-16T06:59:38.886Z,3.13
2023-03-16T07:00:38.882Z,3.11
2023-03-16T07:01:38.848Z,3.13
2023-03-16T07:02:39.080Z,3.28
2023-03-16T07:03:38.818Z,3.51
2023-03-16T07:04:38.885Z,3.69
2023-03-16T07:05:38.806Z,3.83
2023-03-16T07:06:38.784Z,4.00
2023-03-16T07:07:38.824Z,4.14
2023-03-16T07:08:38.930Z,4.24
2023-03-16T07:09:41.452Z,4.32
2023-03-16T07:10:38.747Z,4.27
2023-03-16T07:11:38.724Z,4.29
2023-03-16T07:12:38.715Z,4.50
2023-03-16T07:13:38.710Z,4.60
2023-03-16T07:14:38.834Z,4.73
2023-03-16T07:15:38.953Z,4.92
2023-03-16T07:16:38.700Z,5.06
2023-03-16T07:17:38.707Z,5.27
2023-03-16T07:18:38.653Z,5.40
2023-03-16T07:19:38.621Z,5.45
2023-03-16T07:20:38.660Z,5.45
2023-03-16T07:21:38.585Z,5.74
2023-03-16T07:22:38.616Z,5.90
2023-03-16T07:23:38.550Z,6.01
2023-03-16T07:24:38.564Z,6.18
2023-03-16T07:25:38.588Z,6.27
2023-03-16T07:26:38.526Z,6.40
2023-03-16T07:27:38.505Z,6.31
2023-03-16T07:28:38.512Z,6.14
2023-03-16T07:29:38.570Z,6.18
2023-03-16T07:30:38.527Z,6.61
2023-03-16T07:31:38.597Z,6.64
2023-03-16T07:32:38.539Z,6.73
2023-03-16T07:33:38.446Z,6.73
2023-03-16T07:34:38.494Z,6.95
2023-03-16T07:35:38.414Z,7.12
2023-03-16T07:36:38.422Z,7.20
2023-03-16T07:37:38.530Z,6.88
2023-03-16T07:38:38.383Z,6.59
2023-03-16T07:39:38.352Z,6.36
2023-03-16T07:40:38.508Z,6.30
2023-03-16T07:41:38.381Z,6.06
2023-03-16T07:42:38.335Z,6.06
2023-03-16T07:43:38.312Z,6.30
2023-03-16T07:44:38.302Z,6.46
2023-03-16T07:45:38.328Z,6.73
2023-03-16T07:46:38.330Z,6.99
2023-03-16T07:47:38.239Z,7.39
2023-03-16T07:48:38.261Z,7.63
2023-03-16T07:49:38.212Z,7.92
2023-03-16T07:50:38.225Z,8.12
2023-03-16T07:51:38.191Z,8.38
2023-03-16T07:52:38.224Z,8.58
2023-03-16T07:53:38.155Z,8.62
2023-03-16T07:54:38.170Z,8.79
2023-03-16T07:55:38.165Z,8.98
2023-03-16T07:56:48.195Z,8.94
2023-03-16T07:57:39.096Z,8.65
2023-03-16T07:58:38.119Z,8.52
2023-03-16T07:59:38.084Z,8.38
2023-03-16T08:00:38.138Z,8.33
2023-03-16T08:01:38.047Z,8.25
2023-03-16T08:02:38.101Z,8.12
2023-03-16T08:03:38.149Z,8.15
2023-03-16T08:04:38.025Z,8.41
2023-03-16T08:05:38.069Z,8.50
2023-03-16T08:06:38.013Z,8.73
2023-03-16T08:07:37.970Z,9.04
2023-03-16T08:08:37.988Z,9.40
2023-03-16T08:09:37.943Z,9.61
2023-03-16T08:10:38.024Z,9.65
2023-03-16T08:11:37.914Z,9.47
2023-03-16T08:12:38.023Z,9.28
2023-03-16T08:13:37.888Z,8.86
2023-03-16T08:14:37.887Z,8.76
2023-03-16T08:15:37.905Z,8.89
2023-03-16T08:16:37.921Z,9.24
2023-03-16T08:17:37.828Z,9.39
2023-03-16T08:18:37.852Z,9.39
2023-03-16T08:19:37.818Z,9.29
2023-03-16T08:20:37.826Z,8.98
2023-03-16T08:21:53.183Z,8.59
2023-03-16T08:22:38.970Z,8.07
2023-03-16T08:23:37.765Z,7.68
2023-03-16T08:24:37.770Z,7.49
2023-03-16T08:25:37.736Z,7.23
2023-03-16T08:26:39.519Z,7.10
2023-03-16T08:27:37.710Z,7.03
2023-03-16T08:28:37.773Z,6.84
2023-03-16T08:29:37.675Z,6.81
2023-03-16T08:30:37.697Z,6.85
2023-03-16T08:31:37.694Z,6.73
2023-03-16T08:32:37.712Z,6.58
2023-03-16T08:33:37.630Z,6.52
2023-03-16T08:34:37.723Z,6.41
2023-03-16T08:35:37.669Z,6.18
2023-03-16T08:36:37.611Z,6.01
2023-03-16T08:37:37.583Z,5.99
2023-03-16T08:38:37.592Z,6.04
2023-03-16T08:39:37.564Z,6.09
2023-03-16T08:40:37.600Z,6.15
2023-03-16T08:41:37.532Z,6.25
2023-03-16T08:42:37.525Z,6.37
2023-03-16T08:43:37.551Z,6.49
2023-03-16T08:44:37.514Z,6.55
2023-03-16T08:45:37.536Z,6.55
2023-03-16T08:46:37.531Z,6.44
2023-03-16T08:47:37.453Z,6.51
2023-03-16T08:48:37.456Z,6.58
2023-03-16T08:49:37.413Z,6.66
2023-03-16T08:50:37.422Z,6.71
2023-03-16T08:51:37.440Z,6.74
2023-03-16T08:52:37.409Z,6.76
2023-03-16T08:53:37.388Z,6.80
2023-03-16T08:54:37.376Z,6.80
2023-03-16T08:55:37.350Z,6.89
2023-03-16T08:56:37.406Z,6.97
2023-03-16T08:57:37.314Z,7.03
2023-03-16T08:58:37.332Z,7.10
2023-03-16T08:59:37.284Z,7.05
2023-03-16T09:00:37.320Z,7.03
2023-03-16T09:01:37.429Z,6.99
2023-03-16T09:02:37.265Z,7.05
2023-03-16T09:03:37.234Z,7.12
2023-03-16T09:04:37.284Z,7.23
2023-03-16T09:05:37.205Z,7.32
2023-03-16T09:06:37.229Z,7.35
2023-03-16T09:07:37.247Z,7.39
2023-03-16T09:08:37.187Z,7.43
2023-03-16T09:09:37.165Z,7.46
2023-03-16T09:10:37.163Z,7.50
2023-03-16T09:11:37.161Z,7.53
2023-03-16T09:12:37.167Z,7.55
2023-03-16T09:13:37.120Z,7.57
2023-03-16T09:14:37.123Z,7.55
2023-03-16T09:15:37.072Z,7.60
2023-03-16T09:16:37.195Z,7.72
2023-03-16T09:17:37.049Z,7.74
2023-03-16T09:18:37.069Z,7.71
2023-03-16T09:19:50.445Z,7.79
2023-03-16T09:20:38.304Z,7.93
2023-03-16T09:21:37.049Z,8.04
2023-03-16T09:22:37.018Z,8.12
2023-03-16T09:23:36.982Z,8.18
2023-03-16T09:24:36.988Z,8.16
2023-03-16T09:25:36.946Z,8.23
2023-03-16T09:26:36.969Z,8.25
2023-03-16T09:27:36.966Z,8.23
2023-03-16T09:28:36.920Z,8.33
2023-03-16T09:29:36.895Z,8.44
2023-03-16T09:30:36.962Z,8.44
2023-03-16T09:31:36.896Z,8.48
2023-03-16T09:32:36.904Z,8.50
2023-03-16T09:33:36.854Z,8.58
2023-03-16T09:34:36.858Z,8.66
2023-03-16T09:35:36.925Z,8.53
2023-03-16T09:36:36.886Z,8.40
2023-03-16T09:37:45.084Z,8.58
2023-03-16T09:38:37.794Z,8.66
2023-03-16T09:39:36.766Z,8.79
2023-03-16T09:40:36.779Z,8.84
2023-03-16T09:41:36.735Z,8.83
2023-03-16T09:42:36.813Z,8.83
2023-03-16T09:43:36.740Z,8.83
2023-03-16T09:44:36.725Z,8.91
2023-03-16T09:45:36.718Z,9.10
2023-03-16T09:46:36.705Z,9.14
2023-03-16T09:47:36.657Z,9.13
2023-03-16T09:48:36.716Z,9.20
2023-03-16T09:49:36.633Z,9.36
2023-03-16T09:50:47.638Z,9.39
2023-03-16T09:51:37.613Z,9.29
2023-03-16T09:52:36.604Z,9.26
2023-03-16T09:53:36.582Z,9.20
2023-03-16T09:54:36.601Z,9.31
2023-03-16T09:55:36.577Z,9.42
2023-03-16T09:56:36.640Z,9.50
2023-03-16T09:57:36.543Z,9.58
2023-03-16T09:58:36.600Z,9.75
2023-03-16T09:59:36.506Z,9.74
2023-03-16T10:00:36.534Z,9.86
2023-03-16T10:01:36.481Z,9.93
2023-03-16T10:02:36.551Z,10.05
2023-03-16T10:03:36.530Z,10.02
2023-03-16T10:04:36.504Z,9.99
2023-03-16T10:05:36.446Z,9.96
2023-03-16T10:06:36.431Z,9.94
2023-03-16T10:07:36.432Z,9.89
2023-03-16T10:08:36.398Z,9.96
2023-03-16T10:09:36.407Z,10.04
2023-03-16T10:10:36.414Z,10.11
2023-03-16T10:11:36.399Z,10.07
2023-03-16T10:12:36.410Z,10.11
2023-03-16T10:13:36.339Z,10.30
2023-03-16T10:14:36.439Z,10.42
2023-03-16T10:15:36.334Z,10.40
2023-03-16T10:16:36.348Z,10.34
2023-03-16T10:17:36.297Z,10.29
2023-03-16T10:18:36.441Z,10.26
2023-03-16T10:19:36.277Z,10.27
2023-03-16T10:20:36.246Z,10.29
2023-03-16T10:21:36.247Z,10.36
2023-03-16T10:22:36.215Z,10.41
2023-03-16T10:23:36.214Z,10.45
2023-03-16T10:24:36.230Z,10.61
2023-03-16T10:25:36.182Z,10.66
2023-03-16T10:26:36.152Z,10.61
2023-03-16T10:27:36.232Z,10.52
2023-03-16T10:28:36.130Z,10.40
2023-03-16T10:29:36.138Z,10.56
2023-03-16T10:30:36.122Z,10.66
2023-03-16T10:31:36.182Z,10.74
2023-03-16T10:32:36.110Z,10.76
2023-03-16T10:33:36.157Z,10.86
2023-03-16T10:34:36.054Z,10.97
2023-03-16T10:35:36.065Z,11.06
2023-03-16T10:36:36.039Z,11.25
2023-03-16T10:37:36.031Z,11.40
2023-03-16T10:38:36.003Z,11.44
2023-03-16T10:39:36.050Z,11.52
2023-03-16T10:40:35.982Z,11.57
2023-03-16T10:41:35.978Z,11.55
2023-03-16T10:42:35.946Z,11.49
2023-03-16T10:43:35.964Z,11.58
2023-03-16T10:44:35.921Z,11.37
2023-03-16T10:45:36.038Z,11.19
2023-03-16T10:46:35.996Z,11.15
2023-03-16T10:47:35.921Z,11.09
2023-03-16T10:48:35.882Z,11.17
2023-03-16T10:49:35.897Z,11.22
2023-03-16T10:50:35.847Z,11.09
2023-03-16T10:51:35.912Z,11.02
2023-03-16T10:52:35.831Z,11.04
2023-03-16T10:53:35.839Z,11.04
2023-03-16T10:54:35.809Z,11.06
2023-03-16T10:55:35.805Z,10.92
2023-03-16T10:56:35.790Z,10.88
2023-03-16T10:57:35.844Z,10.78
2023-03-16T10:58:35.748Z,10.89
2023-03-16T10:59:35.753Z,11.02
2023-03-16T11:00:35.728Z,11.09
2023-03-16T11:01:35.841Z,11.06
2023-03-16T11:02:35.713Z,11.10
2023-03-16T11:03:37.129Z,11.21
2023-03-16T11:04:35.687Z,11.19
2023-03-16T11:05:35.702Z,11.18
2023-03-16T11:06:35.645Z,11.14
2023-03-16T11:07:35.689Z,11.10
2023-03-16T11:08:35.638Z,11.24
2023-03-16T11:09:35.626Z,11.25
2023-03-16T11:10:40.490Z,11.15
2023-03-16T11:11:36.605Z,11.06
2023-03-16T11:12:35.555Z,10.88
2023-03-16T11:13:42.646Z,10.79
2023-03-16T11:14:35.573Z,10.82
2023-03-16T11:15:35.606Z,10.82
2023-03-16T11:16:35.574Z,10.81
2023-03-16T11:17:35.524Z,10.79
2023-03-16T11:18:35.536Z,10.73
2023-03-16T11:19:35.593Z,10.76
2023-03-16T11:20:35.621Z,10.79
2023-03-16T11:21:35.541Z,10.81
2023-03-16T11:22:35.455Z,10.88
2023-03-16T11:23:35.466Z,11.02
2023-03-16T11:24:42.418Z,11.04
2023-03-16T11:25:35.399Z,10.96
2023-03-16T11:26:35.749Z,10.86
2023-03-16T11:27:35.438Z,10.86
2023-03-16T11:28:35.349Z,11.02
2023-03-16T11:29:35.372Z,11.11
2023-03-16T11:30:35.379Z,11.11
2023-03-16T11:31:35.339Z,11.14
2023-03-16T11:32:35.322Z,11.22
2023-03-16T11:33:35.322Z,11.17
2023-03-16T11:34:35.277Z,11.09
2023-03-16T11:35:35.329Z,11.09
2023-03-16T11:36:35.373Z,11.09
2023-03-16T11:37:35.264Z,11.07
2023-03-16T11:38:35.232Z,11.22
2023-03-16T11:39:35.218Z,11.28
2023-03-16T11:40:35.183Z,11.27
2023-03-16T11:41:42.264Z,11.27
2023-03-16T11:42:35.154Z,11.43
2023-03-16T11:43:35.178Z,11.52
2023-03-16T11:44:35.134Z,11.58
2023-03-16T11:45:35.149Z,11.58
2023-03-16T11:46:35.194Z,11.57
2023-03-16T11:47:35.228Z,11.69
2023-03-16T11:48:35.093Z,11.64
2023-03-16T11:49:35.125Z,11.67
2023-03-16T11:50:35.076Z,11.76
2023-03-16T11:51:35.072Z,11.67
2023-03-16T11:52:35.034Z,11.70
2023-03-16T11:53:35.129Z,11.72
2023-03-16T11:54:35.010Z,11.70
2023-03-16T11:55:35.007Z,11.62
2023-03-16T11:56:34.976Z,11.55
2023-03-16T11:57:34.985Z,11.60
2023-03-16T11:58:34.945Z,11.54
2023-03-16T11:59:34.990Z,11.54
2023-03-16T12:00:35.027Z,11.60
2023-03-16T12:01:34.950Z,11.73
2023-03-16T12:02:35.005Z,11.70
2023-03-16T12:03:35.009Z,11.70
2023-03-16T12:04:34.860Z,11.73
2023-03-16T12:05:34.873Z,11.86
2023-03-16T12:06:34.896Z,12.02
2023-03-16T12:07:34.842Z,12.16
2023-03-16T12:08:34.810Z,12.21
2023-03-16T12:09:34.821Z,12.12
2023-03-16T12:10:34.781Z,12.04
2023-03-16T12:11:34.810Z,12.09
2023-03-16T12:12:34.823Z,12.07
2023-03-16T12:13:34.757Z,11.99
2023-03-16T12:14:34.730Z,12.04
2023-03-16T12:15:34.743Z,12.14
2023-03-16T12:16:48.290Z,12.24
2023-03-16T12:17:35.757Z,12.23
2023-03-16T12:18:34.677Z,12.07
2023-03-16T12:19:34.678Z,12.02
2023-03-16T12:20:34.864Z,11.99
2023-03-16T12:21:34.652Z,12.12
2023-03-16T12:22:34.635Z,12.19
2023-03-16T12:23:34.673Z,12.17
2023-03-16T12:24:34.611Z,12.28
2023-03-16T12:25:34.748Z,12.41
2023-03-16T12:26:34.570Z,12.53
2023-03-16T12:27:34.661Z,12.67
2023-03-16T12:28:34.655Z,12.75
2023-03-16T12:29:34.601Z,12.60
2023-03-16T12:30:34.538Z,12.56
2023-03-16T12:31:34.610Z,12.50
2023-03-16T12:32:34.509Z,12.57
2023-03-16T12:33:34.519Z,12.50
2023-03-16T12:34:34.471Z,12.42
2023-03-16T12:35:34.535Z,12.35
2023-03-16T12:36:34.447Z,12.29
2023-03-16T12:37:34.586Z,12.23
2023-03-16T12:38:34.410Z,12.29
2023-03-16T12:39:34.429Z,12.29
2023-03-16T12:40:34.468Z,12.45
2023-03-16T12:41:34.386Z,12.59
2023-03-16T12:42:34.359Z,12.65
2023-03-16T12:43:34.644Z,12.72
2023-03-16T12:44:34.334Z,12.85
2023-03-16T12:45:34.456Z,12.93
2023-03-16T12:46:34.379Z,13.04
2023-03-16T12:47:34.313Z,13.11
2023-03-16T12:48:34.280Z,13.11
2023-03-16T12:49:34.305Z,13.12
2023-03-16T12:50:34.248Z,13.20
2023-03-16T12:51:34.255Z,13.04
2023-03-16T12:52:34.276Z,12.86
2023-03-16T12:53:34.229Z,12.67
2023-03-16T12:54:34.196Z,12.52
2023-03-16T12:55:34.203Z,12.62
2023-03-16T12:56:34.189Z,12.60
2023-03-16T12:57:34.203Z,12.78
2023-03-16T12:58:34.198Z,13.07
2023-03-16T12:59:34.153Z,13.30
2023-03-16T13:00:34.152Z,13.39
2023-03-16T13:01:34.165Z,13.52
2023-03-16T13:02:34.083Z,13.59
2023-03-16T13:03:34.082Z,13.69
2023-03-16T13:04:34.133Z,13.69
2023-03-16T13:05:34.136Z,13.71
2023-03-16T13:06:36.237Z,13.73
2023-03-16T13:07:34.059Z,13.69
2023-03-16T13:08:34.007Z,13.70
2023-03-16T13:09:34.008Z,13.44
2023-03-16T13:10:33.989Z,13.46
2023-03-16T13:11:34.043Z,13.55
2023-03-16T13:12:33.956Z,13.25
2023-03-16T13:13:33.978Z,13.19
2023-03-16T13:14:33.927Z,13.14
2023-03-16T13:15:33.926Z,13.07
2023-03-16T13:16:34.001Z,13.08
2023-03-16T13:17:34.045Z,13.10
2023-03-16T13:18:33.891Z,13.08
2023-03-16T13:19:33.888Z,13.08
2023-03-16T13:20:34.384Z,12.89
2023-03-16T13:21:33.868Z,12.86
2023-03-16T13:22:33.834Z,12.97
2023-03-16T13:23:33.922Z,13.10
2023-03-16T13:24:33.825Z,13.22
2023-03-16T13:25:33.802Z,13.28
2023-03-16T13:26:33.775Z,13.44
2023-03-16T13:27:33.777Z,13.51
2023-03-16T13:28:33.740Z,13.29
2023-03-16T13:29:33.976Z,13.10
2023-03-16T13:30:33.776Z,13.04
2023-03-16T13:31:33.794Z,13.17
2023-03-16T13:32:33.790Z,13.26
2023-03-16T13:33:33.700Z,13.36
2023-03-16T13:34:33.673Z,13.44
2023-03-16T13:35:33.734Z,13.45
2023-03-16T13:36:33.662Z,13.42
2023-03-16T13:37:33.656Z,13.39
2023-03-16T13:38:33.614Z,13.22
2023-03-16T13:39:33.613Z,13.17
2023-03-16T13:40:33.620Z,13.05
2023-03-16T13:41:33.620Z,13.04
2023-03-16T13:42:33.573Z,13.07
2023-03-16T13:43:33.573Z,12.92
2023-03-16T13:44:33.602Z,12.78
2023-03-16T13:45:33.663Z,12.72
2023-03-16T13:46:33.507Z,12.62
2023-03-16T13:47:33.542Z,12.68
2023-03-16T13:48:33.481Z,12.93
2023-03-16T13:49:33.477Z,13.08
2023-03-16T13:50:33.454Z,13.15
2023-03-16T13:51:33.557Z,13.15
2023-03-16T13:52:33.420Z,13.20
2023-03-16T13:53:33.431Z,13.26
2023-03-16T13:54:33.401Z,13.23
2023-03-16T13:55:33.410Z,13.10
2023-03-16T13:56:33.361Z,13.12
2023-03-16T13:57:33.431Z,13.20
2023-03-16T13:58:35.384Z,13.20
2023-03-16T13:59:33.360Z,13.23
2023-03-16T14:00:33.335Z,13.36
2023-03-16T14:01:33.434Z,13.44
2023-03-16T14:02:33.474Z,13.45
2023-03-16T14:03:33.378Z,13.45
2023-03-16T14:04:33.263Z,13.44
2023-03-16T14:05:33.369Z,13.36
2023-03-16T14:06:33.256Z,13.29
2023-03-16T14:07:33.254Z,13.19
2023-03-16T14:08:33.210Z,13.08
2023-03-16T14:09:33.210Z,13.03
2023-03-16T14:10:33.228Z,12.92
2023-03-16T14:11:33.261Z,12.95
2023-03-16T14:12:33.170Z,13.05
2023-03-16T14:13:33.171Z,13.28
2023-03-16T14:14:33.117Z,13.51
2023-03-16T14:15:33.185Z,13.70
2023-03-16T14:16:33.091Z,13.95
2023-03-16T14:17:33.180Z,14.17
2023-03-16T14:18:33.097Z,14.37
2023-03-16T14:19:33.055Z,14.50
2023-03-16T14:20:34.925Z,14.62
2023-03-16T14:21:34.046Z,14.73
2023-03-16T14:22:33.074Z,14.84
2023-03-16T14:23:33.043Z,14.96
2023-03-16T14:24:33.010Z,15.06
2023-03-16T14:25:33.949Z,15.14
2023-03-16T14:26:32.974Z,15.20
2023-03-16T14:27:33.019Z,15.25
2023-03-16T14:28:32.979Z,15.27
2023-03-16T14:29:33.017Z,15.17
2023-03-16T14:30:32.961Z,15.16
2023-03-16T14:31:32.956Z,15.28
2023-03-16T14:32:32.932Z,15.29
2023-03-16T14:33:32.915Z,15.36
2023-03-16T14:34:32.877Z,15.51
2023-03-16T14:35:33.074Z,15.54
2023-03-16T14:36:32.843Z,15.51
2023-03-16T14:37:32.819Z,15.44
2023-03-16T14:38:33.008Z,15.49
2023-03-16T14:39:32.812Z,15.46
2023-03-16T14:40:32.831Z,15.01
2023-03-16T14:41:32.790Z,14.72
2023-03-16T14:42:32.775Z,14.65
2023-03-16T14:43:32.761Z,14.52
2023-03-16T14:44:32.835Z,14.50
2023-03-16T14:45:32.874Z,14.58
2023-03-16T14:46:32.901Z,14.61
2023-03-16T14:47:32.761Z,14.72
2023-03-16T14:48:32.888Z,14.73
2023-03-16T14:49:32.684Z,14.75
2023-03-16T14:50:32.685Z,14.81
2023-03-16T14:51:32.666Z,14.83
2023-03-16T14:52:32.650Z,14.86
2023-03-16T14:53:32.615Z,14.88
2023-03-16T14:54:32.616Z,14.69
2023-03-16T14:55:32.579Z,14.69
2023-03-16T14:56:32.793Z,14.70
2023-03-16T14:57:32.559Z,14.62
2023-03-16T14:58:32.607Z,14.55
2023-03-16T14:59:32.528Z,14.28
2023-03-16T15:00:37.139Z,14.17
2023-03-16T15:01:33.579Z,13.96
2023-03-16T15:02:32.588Z,14.03
2023-03-16T15:03:32.484Z,14.07
2023-03-16T15:04:32.475Z,14.07
2023-03-16T15:05:34.026Z,14.10
2023-03-16T15:06:32.474Z,14.03
2023-03-16T15:07:32.490Z,13.96
2023-03-16T15:08:32.427Z,14.00
2023-03-16T15:09:32.396Z,13.88
2023-03-16T15:10:32.404Z,13.78
2023-03-16T15:11:32.394Z,13.73
2023-03-16T15:12:32.396Z,13.69
2023-03-16T15:13:32.378Z,13.77
2023-03-16T15:14:32.345Z,13.75
2023-03-16T15:15:32.438Z,13.82
2023-03-16T15:16:32.367Z,13.73
2023-03-16T15:17:32.307Z,13.81
2023-03-16T15:18:32.335Z,13.88
2023-03-16T15:19:32.265Z,13.88
2023-03-16T15:20:32.273Z,13.88
2023-03-16T15:21:32.293Z,13.92
2023-03-16T15:22:32.333Z,13.97
2023-03-16T15:23:32.213Z,14.02
2023-03-16T15:24:32.222Z,14.06
2023-03-16T15:25:32.193Z,14.02
2023-03-16T15:26:32.220Z,14.04
2023-03-16T15:27:32.216Z,14.07
2023-03-16T15:28:32.191Z,13.97
2023-03-16T15:29:32.135Z,13.97
2023-03-16T15:30:32.303Z,13.97
2023-03-16T15:31:32.146Z,13.99
2023-03-16T15:32:32.196Z,13.97
2023-03-16T15:33:32.154Z,13.91
2023-03-16T15:34:32.145Z,13.91
2023-03-16T15:35:32.093Z,13.89
2023-03-16T15:36:32.081Z,13.73
2023-03-16T15:37:32.756Z,13.67
2023-03-16T15:38:32.034Z,13.67
2023-03-16T15:39:32.095Z,13.71
2023-03-16T15:40:32.177Z,13.67
2023-03-16T15:41:41.337Z,13.57
2023-03-16T15:42:33.023Z,13.60
2023-03-16T15:43:32.008Z,13.63
2023-03-16T15:44:31.950Z,13.66
2023-03-16T15:45:31.978Z,13.70
2023-03-16T15:46:31.955Z,13.69
2023-03-16T15:47:31.906Z,13.66
2023-03-16T15:48:31.907Z,13.48
2023-03-16T15:49:37.798Z,13.39
2023-03-16T15:50:32.949Z,13.39
2023-03-16T15:51:31.862Z,13.45
2023-03-16T15:52:31.867Z,13.42
2023-03-16T15:53:34.109Z,13.39
2023-03-16T15:54:31.820Z,13.33
2023-03-16T15:55:31.783Z,13.32
2023-03-16T15:56:33.528Z,13.29
2023-03-16T15:57:31.772Z,13.30
2023-03-16T15:58:31.776Z,13.26
2023-03-16T15:59:31.724Z,13.30
2023-03-16T16:00:31.904Z,13.28
2023-03-16T16:01:31.692Z,13.23
2023-03-16T16:02:31.744Z,13.19
2023-03-16T16:03:31.678Z,13.10
2023-03-16T16:04:31.731Z,13.04
2023-03-16T16:05:31.646Z,13.05
2023-03-16T16:06:31.694Z,13.10
2023-03-16T16:07:31.649Z,13.10
2023-03-16T16:08:31.641Z,13.12
2023-03-16T16:09:31.589Z,13.11
2023-03-16T16:10:31.808Z,13.10
2023-03-16T16:11:31.570Z,13.03
2023-03-16T16:12:31.601Z,13.00
2023-03-16T16:13:43.555Z,12.97
2023-03-16T16:14:32.539Z,12.95
2023-03-16T16:15:31.640Z,12.90
2023-03-16T16:16:31.557Z,12.87
2023-03-16T16:17:48.051Z,12.85
2023-03-16T16:18:32.515Z,12.83
2023-03-16T16:19:31.445Z,12.78
2023-03-16T16:20:31.485Z,12.77
2023-03-16T16:21:31.449Z,12.74
2023-03-16T16:22:31.483Z,12.72
2023-03-16T16:23:31.389Z,12.68
2023-03-16T16:24:31.400Z,12.65
2023-03-16T16:25:31.741Z,12.60
2023-03-16T16:26:48.311Z,12.59
2023-03-16T16:27:32.410Z,12.52
2023-03-16T16:28:31.346Z,12.50
2023-03-16T16:29:31.320Z,12.46
2023-03-16T16:30:31.334Z,12.46
2023-03-16T16:31:31.360Z,12.41
2023-03-16T16:32:31.348Z,12.35
2023-03-16T16:33:31.301Z,12.27
2023-03-16T16:34:31.291Z,12.21
2023-03-16T16:35:31.668Z,12.10
2023-03-16T16:36:31.254Z,12.05
2023-03-16T16:37:31.234Z,12.01
2023-03-16T16:38:31.225Z,11.96
2023-03-16T16:39:31.188Z,11.94
2023-03-16T16:40:31.228Z,11.90
2023-03-16T16:41:31.156Z,11.85
2023-03-16T16:42:31.243Z,11.83
2023-03-16T16:43:31.143Z,11.76
2023-03-16T16:44:34.003Z,11.67
2023-03-16T16:45:31.417Z,11.60
2023-03-16T16:46:31.115Z,11.52
2023-03-16T16:47:31.076Z,11.46
2023-03-16T16:48:31.111Z,11.42
2023-03-16T16:49:31.211Z,11.36
2023-03-16T16:50:31.049Z,11.28
2023-03-16T16:51:31.039Z,11.19
2023-03-16T16:52:31.049Z,11.15
2023-03-16T16:53:31.051Z,11.09
2023-03-16T16:54:31.131Z,11.04
2023-03-16T16:55:31.146Z,10.99
2023-03-16T16:56:30.997Z,10.91
2023-03-16T16:57:31.917Z,10.85
2023-03-16T16:58:31.014Z,10.81
2023-03-16T16:59:30.928Z,10.76
2023-03-16T17:00:30.974Z,10.71
2023-03-16T17:01:30.911Z,10.71
2023-03-16T17:02:30.897Z,10.71
2023-03-16T17:03:30.897Z,10.73
2023-03-16T17:04:31.361Z,10.70
2023-03-16T17:05:31.122Z,10.71
2023-03-16T17:06:30.988Z,10.68
2023-03-16T17:07:30.830Z,10.70
2023-03-16T17:08:30.828Z,10.67
2023-03-16T17:09:30.871Z,10.66
2023-03-16T17:10:30.981Z,10.63
2023-03-16T17:11:30.830Z,10.59
2023-03-16T17:12:30.808Z,10.56
2023-03-16T17:13:30.741Z,10.56
2023-03-16T17:14:30.746Z,10.53
2023-03-16T17:15:31.056Z,10.48
2023-03-16T17:16:30.824Z,10.48
2023-03-16T17:17:30.707Z,10.45
2023-03-16T17:18:30.867Z,10.41
2023-03-16T17:19:30.676Z,10.36
2023-03-16T17:20:30.728Z,10.29
2023-03-16T17:21:30.693Z,10.22
2023-03-16T17:22:30.888Z,10.15
2023-03-16T17:23:30.625Z,10.09
2023-03-16T17:24:30.653Z,10.05
2023-03-16T17:25:30.961Z,10.01
2023-03-16T17:26:30.607Z,9.94
2023-03-16T17:27:30.568Z,9.89
2023-03-16T17:28:30.624Z,9.84
2023-03-16T17:29:30.538Z,9.79
2023-03-16T17:30:30.556Z,9.76
2023-03-16T17:31:30.535Z,9.74
2023-03-16T17:32:30.535Z,9.68
2023-03-16T17:33:30.539Z,9.66
2023-03-16T17:34:30.495Z,9.65
2023-03-16T17:35:30.897Z,9.65
2023-03-16T17:36:30.473Z,9.65
2023-03-16T17:37:30.444Z,9.66
2023-03-16T17:38:30.456Z,9.69
2023-03-16T17:39:30.465Z,9.69
2023-03-16T17:40:30.586Z,9.66
2023-03-16T17:41:32.495Z,9.65
2023-03-16T17:42:30.396Z,9.66
2023-03-16T17:43:30.373Z,9.64
2023-03-16T17:44:30.358Z,9.57
2023-03-16T17:45:30.989Z,9.54
2023-03-16T17:46:30.720Z,9.47
2023-03-16T17:47:30.363Z,9.38
2023-03-16T17:48:30.326Z,9.31
2023-03-16T17:49:30.306Z,9.23
2023-03-16T17:50:31.085Z,9.14
2023-03-16T17:51:30.350Z,9.08
2023-03-16T17:52:30.286Z,8.99
2023-03-16T17:53:30.535Z,8.98
2023-03-16T17:54:30.323Z,8.94
2023-03-16T17:55:30.205Z,8.91
2023-03-16T17:56:30.200Z,8.84
2023-03-16T17:57:30.230Z,8.81
2023-03-16T17:58:30.179Z,8.79
2023-03-16T17:59:30.150Z,8.77
2023-03-16T18:00:30.344Z,8.74